Time;durP1;ratioP1;P1;durP2;ratioP2;P2;SDS_P1;SDS_P2;PMS_P1;PMS_P2;Temp;Humidity;BMP_temperature;BMP_pressure;BME280_temperature;BME280_humidity;BME280_pressure;Samples;Min_cycle;Max_cycle;Signal;HPM_P1;HPM_P2
2022/12/12 00:02:20;;;;;;;45.13;33.83;;;;;;;;;;5015505;28;20065;-77
2022/12/12 00:04:50;;;;;;;40.17;31.00;;;;;;;;;;5012999;28;20491;-77
2022/12/12 00:07:16;;;;;;;42.90;31.75;;;;;;;;;;5013216;28;20037;-77
2022/12/12 00:09:42;;;;;;;40.95;30.70;;;;;;;;;;5010523;28;20105;-77
2022/12/12 00:12:08;;;;;;;37.83;31.85;;;;;;;;;;5010792;28;20046;-77
2022/12/12 00:14:36;;;;;;;41.30;32.58;;;;;;;;;;5012345;28;20026;-77
2022/12/12 00:17:04;;;;;;;36.80;29.27;;;;;;;;;;5012528;28;20088;-77
2022/12/12 00:19:32;;;;;;;41.45;32.45;;;;;;;;;;5012225;28;20025;-77
2022/12/12 00:21:58;;;;;;;46.97;31.33;;;;;;;;;;5011601;28;20407;-77
2022/12/12 00:24:29;;;;;;;42.10;31.60;;;;;;;;;;5013590;28;20018;-77
2022/12/12 00:26:55;;;;;;;41.85;31.60;;;;;;;;;;5012754;28;20041;-77
2022/12/12 00:29:25;;;;;;;43.38;31.05;;;;;;;;;;5010792;28;20049;-77
2022/12/12 00:31:53;;;;;;;42.75;33.85;;;;;;;;;;5015067;28;20029;-78
2022/12/12 00:34:22;;;;;;;45.20;37.00;;;;;;;;;;5012042;28;20018;-77
2022/12/12 00:36:50;;;;;;;45.90;35.95;;;;;;;;;;5012280;28;20033;-77
2022/12/12 00:39:19;;;;;;;45.92;33.42;;;;;;;;;;5009778;28;20057;-77
2022/12/12 00:41:45;;;;;;;45.25;30.48;;;;;;;;;;5012210;28;20037;-77
2022/12/12 00:44:11;;;;;;;53.05;36.25;;;;;;;;;;5012699;28;20038;-77
2022/12/12 00:46:42;;;;;;;55.22;34.30;;;;;;;;;;4996506;28;20042;-77
2022/12/12 00:49:11;;;;;;;38.42;28.63;;;;;;;;;;5008959;28;20033;-77
2022/12/12 00:51:39;;;;;;;45.28;33.08;;;;;;;;;;5012837;28;20038;-77
2022/12/12 00:54:05;;;;;;;44.35;30.77;;;;;;;;;;5013631;28;20632;-77
2022/12/12 00:56:31;;;;;;;43.88;31.67;;;;;;;;;;5009867;28;20412;-77
2022/12/12 00:58:57;;;;;;;54.78;33.25;;;;;;;;;;5011437;28;20037;-77
2022/12/12 01:01:26;;;;;;;40.80;29.08;;;;;;;;;;4994802;28;20040;-77
2022/12/12 01:03:58;;;;;;;46.40;30.38;;;;;;;;;;5010631;28;20038;-77
2022/12/12 01:06:24;;;;;;;39.80;33.08;;;;;;;;;;5020001;28;20029;-77
2022/12/12 01:08:55;;;;;;;41.53;30.33;;;;;;;;;;5012152;28;20037;-77
2022/12/12 01:11:21;;;;;;;39.83;29.92;;;;;;;;;;4988784;23;20046;-73
2022/12/12 01:13:48;;;;;;;39.42;27.95;;;;;;;;;;4980312;28;20077;-74
2022/12/12 01:16:16;;;;;;;44.85;31.20;;;;;;;;;;5007219;28;20037;-73
2022/12/12 01:18:42;;;;;;;46.33;34.45;;;;;;;;;;5011950;28;20026;-73
2022/12/12 01:21:11;;;;;;;43.17;32.17;;;;;;;;;;4996320;28;20495;-73
2022/12/12 01:23:42;;;;;;;36.80;29.33;;;;;;;;;;5014064;28;20033;-73
2022/12/12 01:26:10;;;;;;;42.50;29.50;;;;;;;;;;5005840;28;20037;-73
2022/12/12 01:28:39;;;;;;;36.78;27.98;;;;;;;;;;5009348;28;20493;-72
2022/12/12 01:31:05;;;;;;;37.30;29.10;;;;;;;;;;5001927;28;20399;-73
2022/12/12 01:33:37;;;;;;;40.92;30.80;;;;;;;;;;5009333;28;20042;-73
2022/12/12 01:36:03;;;;;;;50.40;33.75;;;;;;;;;;5003813;28;20041;-73
2022/12/12 01:38:29;;;;;;;33.22;29.50;;;;;;;;;;5009875;28;20484;-73
2022/12/12 01:40:55;;;;;;;35.95;30.77;;;;;;;;;;5010333;28;20029;-73
2022/12/12 01:43:24;;;;;;;51.38;33.13;;;;;;;;;;5013373;28;20049;-72
2022/12/12 01:45:56;;;;;;;39.25;30.80;;;;;;;;;;5014006;28;20033;-73
2022/12/12 01:48:23;;;;;;;38.50;30.27;;;;;;;;;;5008505;28;20480;-73
2022/12/12 01:50:52;;;;;;;43.65;31.88;;;;;;;;;;5011585;28;20101;-73
2022/12/12 01:53:19;;;;;;;46.75;34.45;;;;;;;;;;5005230;28;20396;-73
2022/12/12 01:55:48;;;;;;;36.00;28.38;;;;;;;;;;5009727;28;20667;-73
2022/12/12 01:58:14;;;;;;;36.85;28.73;;;;;;;;;;4991668;28;20036;-73
2022/12/12 02:00:41;;;;;;;36.80;27.73;;;;;;;;;;5005793;28;20828;-73
2022/12/12 02:03:17;;;;;;;45.90;30.77;;;;;;;;;;5007385;28;20526;-73
2022/12/12 02:05:50;;;;;;;37.75;29.77;;;;;;;;;;5009188;28;20037;-73
2022/12/12 02:08:18;;;;;;;36.67;27.50;;;;;;;;;;5000618;28;20385;-73
2022/12/12 02:10:44;;;;;;;32.58;29.05;;;;;;;;;;5001194;28;20045;-73
2022/12/12 02:13:13;;;;;;;41.92;27.35;;;;;;;;;;5001244;28;20034;-74
2022/12/12 02:15:46;;;;;;;36.40;28.67;;;;;;;;;;5009501;28;20045;-74
2022/12/12 02:18:17;;;;;;;38.30;32.65;;;;;;;;;;5013665;28;20030;-74
2022/12/12 02:20:43;;;;;;;41.47;29.33;;;;;;;;;;5009889;28;20030;-74
2022/12/12 02:23:27;;;;;;;31.70;26.92;;;;;;;;;;5015552;28;20105;-74
2022/12/12 02:26:12;;;;;;;36.95;24.52;;;;;;;;;;5008794;28;20034;-74
2022/12/12 02:28:50;;;;;;;41.42;28.30;;;;;;;;;;5007462;28;20049;-75
2022/12/12 02:31:23;;;;;;;39.38;29.35;;;;;;;;;;5007994;28;20068;-74
2022/12/12 02:33:49;;;;;;;39.10;30.17;;;;;;;;;;5007331;28;20484;-74
2022/12/12 02:36:53;;;;;;;41.40;30.60;;;;;;;;;;5010773;28;20030;-75
2022/12/12 02:39:33;;;;;;;38.72;31.20;;;;;;;;;;4965226;28;20034;-74
2022/12/12 02:42:04;;;;;;;35.97;30.20;;;;;;;;;;4996207;28;20045;-74
2022/12/12 02:44:29;;;;;;;43.15;31.15;;;;;;;;;;5005041;28;20037;-74
2022/12/12 02:46:56;;;;;;;38.88;29.83;;;;;;;;;;5006822;28;20034;-74
2022/12/12 02:49:31;;;;;;;39.97;28.77;;;;;;;;;;5005040;28;20037;-74
2022/12/12 02:51:58;;;;;;;40.58;32.25;;;;;;;;;;5003364;28;20403;-75
2022/12/12 02:54:26;;;;;;;47.40;32.20;;;;;;;;;;5004110;28;20045;-74
2022/12/12 02:56:58;;;;;;;38.40;30.85;;;;;;;;;;5008934;28;20034;-74
2022/12/12 02:59:32;;;;;;;37.88;30.30;;;;;;;;;;4987979;28;20026;-74
2022/12/12 03:02:22;;;;;;;41.28;28.73;;;;;;;;;;5014528;28;20041;-74
2022/12/12 03:07:50;;;;;;;42.45;30.70;;;;;;;;;;5007229;28;20033;-74
2022/12/12 03:10:19;;;;;;;43.78;29.35;;;;;;;;;;5001406;28;20038;-75
2022/12/12 03:12:47;;;;;;;41.05;28.67;;;;;;;;;;5009890;28;20387;-74
2022/12/12 03:15:17;;;;;;;41.22;31.48;;;;;;;;;;5003351;28;20034;-74
2022/12/12 03:17:47;;;;;;;35.40;28.48;;;;;;;;;;5009624;28;20034;-75
2022/12/12 03:20:24;;;;;;;56.50;25.77;;;;;;;;;;5007278;28;20037;-74
2022/12/12 03:22:59;;;;;;;41.40;28.85;;;;;;;;;;5011989;28;20037;-75
2022/12/12 03:25:45;;;;;;;34.78;27.17;;;;;;;;;;4996982;28;20399;-74
2022/12/12 03:28:22;;;;;;;38.92;28.85;;;;;;;;;;5019167;28;20042;-74
2022/12/12 03:30:51;;;;;;;37.42;28.52;;;;;;;;;;5023741;28;20403;-74
2022/12/12 03:33:19;;;;;;;46.42;32.78;;;;;;;;;;5013716;28;20037;-71
2022/12/12 03:35:46;;;;;;;38.47;30.70;;;;;;;;;;5010091;28;20037;-73
2022/12/12 03:38:12;;;;;;;37.03;28.10;;;;;;;;;;5004627;28;20029;-73
2022/12/12 03:40:42;;;;;;;38.75;30.38;;;;;;;;;;5022040;28;20088;-73
2022/12/12 03:43:09;;;;;;;35.03;27.02;;;;;;;;;;5012133;28;20484;-74
2022/12/12 03:45:38;;;;;;;42.03;30.98;;;;;;;;;;5011253;28;20034;-73
2022/12/12 03:48:13;;;;;;;41.40;30.45;;;;;;;;;;5010150;28;20030;-72
2022/12/12 03:50:44;;;;;;;39.05;28.02;;;;;;;;;;5009977;28;20034;-73
2022/12/12 03:53:13;;;;;;;37.08;27.98;;;;;;;;;;4988207;28;20484;-73
2022/12/12 03:55:45;;;;;;;40.38;28.42;;;;;;;;;;5011840;28;20033;-73
2022/12/12 03:58:21;;;;;;;40.33;26.67;;;;;;;;;;4993352;28;20030;-73
2022/12/12 04:00:49;;;;;;;38.25;27.08;;;;;;;;;;5012307;28;20026;-73
2022/12/12 04:03:18;;;;;;;34.35;27.20;;;;;;;;;;5010971;28;20034;-73
2022/12/12 04:06:25;;;;;;;39.03;31.35;;;;;;;;;;5009365;28;20038;-73
2022/12/12 04:14:43;;;;;;;36.53;27.83;;;;;;;;;;5009769;28;20026;-73
2022/12/12 04:17:11;;;;;;;37.30;27.20;;;;;;;;;;5008066;28;20384;-73
2022/12/12 04:26:37;;;;;;;39.70;29.15;;;;;;;;;;5003600;28;20023;-73
2022/12/12 04:28:30;;;;;;;41.33;27.20;;;;;;;;;;5019950;28;20029;-73
2022/12/12 04:31:01;;;;;;;32.97;29.00;;;;;;;;;;5006115;28;20037;-73
2022/12/12 04:33:37;;;;;;;42.80;31.67;;;;;;;;;;5007133;28;20084;-73
2022/12/12 04:36:07;;;;;;;39.67;29.45;;;;;;;;;;5009580;28;20037;-73
2022/12/12 04:38:34;;;;;;;36.47;28.73;;;;;;;;;;5010349;28;20022;-73
2022/12/12 04:41:04;;;;;;;47.22;27.77;;;;;;;;;;5005963;28;20113;-73
2022/12/12 04:43:42;;;;;;;42.90;30.25;;;;;;;;;;5008319;28;20034;-73
2022/12/12 04:46:14;;;;;;;41.65;30.33;;;;;;;;;;5010747;28;20041;-73
2022/12/12 04:49:04;;;;;;;45.28;32.63;;;;;;;;;;5012185;28;20037;-73
2022/12/12 04:51:45;;;;;;;38.53;29.60;;;;;;;;;;5023546;28;20038;-73
2022/12/12 04:54:23;;;;;;;37.78;27.90;;;;;;;;;;5010202;28;20373;-73
2022/12/12 04:56:53;;;;;;;40.15;28.00;;;;;;;;;;5008018;28;20045;-73
2022/12/12 04:59:19;;;;;;;34.80;23.65;;;;;;;;;;5007307;28;20041;-73
2022/12/12 05:02:07;;;;;;;42.08;27.20;;;;;;;;;;5016895;28;20034;-74
2022/12/12 05:04:55;;;;;;;43.33;32.13;;;;;;;;;;5011232;28;20022;-73
2022/12/12 05:07:30;;;;;;;37.20;26.92;;;;;;;;;;5005739;28;20042;-73
2022/12/12 05:09:57;;;;;;;34.55;29.83;;;;;;;;;;5005997;28;20030;-73
2022/12/12 05:12:25;;;;;;;45.03;30.52;;;;;;;;;;5011152;28;20041;-73
2022/12/12 05:14:51;;;;;;;36.60;28.17;;;;;;;;;;5011123;28;20041;-73
2022/12/12 05:17:24;;;;;;;40.33;27.85;;;;;;;;;;5022575;28;20043;-74
2022/12/12 05:19:52;;;;;;;36.88;30.20;;;;;;;;;;5009211;28;20033;-73
2022/12/12 05:22:20;;;;;;;44.25;28.48;;;;;;;;;;5012449;28;20053;-74
2022/12/12 05:24:46;;;;;;;43.42;31.13;;;;;;;;;;5008836;28;20029;-74
2022/12/12 05:27:14;;;;;;;32.20;25.70;;;;;;;;;;5007714;28;20476;-74
2022/12/12 05:29:43;;;;;;;47.05;30.85;;;;;;;;;;5007352;28;20048;-73
2022/12/12 05:32:09;;;;;;;40.22;30.20;;;;;;;;;;5014895;28;20033;-74
2022/12/12 05:34:35;;;;;;;39.40;29.08;;;;;;;;;;5013924;28;20109;-74
2022/12/12 05:37:01;;;;;;;47.88;30.10;;;;;;;;;;5012823;28;20113;-74
2022/12/12 05:39:33;;;;;;;38.55;30.65;;;;;;;;;;5003866;28;20026;-74
2022/12/12 05:41:59;;;;;;;44.72;29.67;;;;;;;;;;5016154;28;20026;-73
2022/12/12 05:44:25;;;;;;;32.45;28.98;;;;;;;;;;5025523;28;20034;-74
2022/12/12 05:46:51;;;;;;;43.30;28.75;;;;;;;;;;5007707;28;20045;-73
2022/12/12 05:49:17;;;;;;;40.92;29.17;;;;;;;;;;5003012;28;20046;-74
2022/12/12 05:51:43;;;;;;;37.03;29.58;;;;;;;;;;5011979;28;20109;-74
2022/12/12 05:54:09;;;;;;;39.67;30.08;;;;;;;;;;5011905;28;20026;-76
2022/12/12 05:56:35;;;;;;;46.80;30.55;;;;;;;;;;5007775;28;20033;-74
2022/12/12 05:59:04;;;;;;;41.65;31.75;;;;;;;;;;5008071;28;20034;-73
2022/12/12 06:01:30;;;;;;;44.47;29.92;;;;;;;;;;5008464;28;20658;-74
2022/12/12 06:03:58;;;;;;;39.30;30.83;;;;;;;;;;5003751;28;20037;-74
2022/12/12 06:06:24;;;;;;;42.25;31.88;;;;;;;;;;5006056;28;20369;-74
2022/12/12 06:08:52;;;;;;;46.53;30.63;;;;;;;;;;5010805;28;20105;-74
2022/12/12 06:11:18;;;;;;;45.72;32.67;;;;;;;;;;5025739;28;20496;-74
2022/12/12 06:13:46;;;;;;;46.85;31.85;;;;;;;;;;5015453;28;20034;-74
2022/12/12 06:16:14;;;;;;;43.28;30.23;;;;;;;;;;5008209;28;20381;-74
2022/12/12 06:18:43;;;;;;;38.92;29.08;;;;;;;;;;5009619;28;20037;-73
2022/12/12 06:21:10;;;;;;;43.85;30.48;;;;;;;;;;5003108;28;20025;-74
2022/12/12 06:23:39;;;;;;;45.90;32.78;;;;;;;;;;5014109;28;20040;-74
2022/12/12 06:26:06;;;;;;;44.90;30.90;;;;;;;;;;5002608;28;20037;-73
2022/12/12 06:28:35;;;;;;;46.70;32.25;;;;;;;;;;5009824;28;20033;-73
2022/12/12 06:31:01;;;;;;;42.08;30.20;;;;;;;;;;5024571;28;20033;-73
2022/12/12 06:33:31;;;;;;;42.75;31.75;;;;;;;;;;5002596;28;20037;-74
2022/12/12 06:35:58;;;;;;;60.08;31.58;;;;;;;;;;4997152;28;20037;-73
2022/12/12 06:38:26;;;;;;;44.03;29.23;;;;;;;;;;4993460;28;20053;-73
2022/12/12 06:40:55;;;;;;;42.83;31.10;;;;;;;;;;5007776;28;20037;-73
2022/12/12 06:43:21;;;;;;;44.05;32.92;;;;;;;;;;5006781;28;20030;-73
2022/12/12 06:45:50;;;;;;;39.70;30.23;;;;;;;;;;5007255;28;20029;-74
2022/12/12 06:48:16;;;;;;;37.20;29.90;;;;;;;;;;5006685;28;20048;-72
2022/12/12 06:50:50;;;;;;;44.65;30.45;;;;;;;;;;5004613;28;20400;-73
2022/12/12 06:53:20;;;;;;;39.10;30.33;;;;;;;;;;5005540;28;20479;-73
2022/12/12 06:55:46;;;;;;;44.78;31.35;;;;;;;;;;5009212;28;20030;-73
2022/12/12 06:58:12;;;;;;;50.35;32.75;;;;;;;;;;4999222;28;20030;-73
2022/12/12 07:00:38;;;;;;;52.17;33.17;;;;;;;;;;5005822;28;20092;-72
2022/12/12 07:03:10;;;;;;;41.83;34.53;;;;;;;;;;5003916;28;20396;-73
2022/12/12 07:05:38;;;;;;;45.67;33.67;;;;;;;;;;5011321;28;20037;-73
2022/12/12 07:08:04;;;;;;;40.78;29.25;;;;;;;;;;5005350;28;20026;-73
2022/12/12 07:10:32;;;;;;;45.45;31.63;;;;;;;;;;5017425;22;20467;-78
2022/12/12 07:13:00;;;;;;;45.08;32.65;;;;;;;;;;4982458;28;20038;-77
2022/12/12 07:15:26;;;;;;;35.45;30.08;;;;;;;;;;4957820;28;20393;-78
2022/12/12 07:17:52;;;;;;;38.78;29.48;;;;;;;;;;4991137;28;20125;-78
2022/12/12 07:20:18;;;;;;;40.20;29.98;;;;;;;;;;4991561;28;20033;-78
2022/12/12 07:22:47;;;;;;;41.25;30.70;;;;;;;;;;4990860;28;20039;-78
2022/12/12 07:25:15;;;;;;;40.40;31.35;;;;;;;;;;4992037;28;20045;-79
2022/12/12 07:27:46;;;;;;;44.17;31.85;;;;;;;;;;4993228;28;20483;-78
2022/12/12 07:30:14;;;;;;;38.35;28.33;;;;;;;;;;4988592;28;20536;-78
2022/12/12 07:32:42;;;;;;;47.45;31.35;;;;;;;;;;4989875;28;20041;-77
2022/12/12 07:35:10;;;;;;;49.33;33.47;;;;;;;;;;4984068;28;20035;-77
2022/12/12 07:37:39;;;;;;;41.67;30.42;;;;;;;;;;4982967;28;20039;-78
2022/12/12 07:40:07;;;;;;;48.85;31.88;;;;;;;;;;4988718;28;20030;-78
2022/12/12 07:42:33;;;;;;;42.97;33.63;;;;;;;;;;4987925;28;20038;-78
2022/12/12 07:44:59;;;;;;;48.10;37.45;;;;;;;;;;4990312;28;20022;-78
2022/12/12 07:47:27;;;;;;;52.15;40.45;;;;;;;;;;4998071;28;20038;-78
2022/12/12 07:49:55;;;;;;;49.30;38.63;;;;;;;;;;4989709;28;20034;-78
2022/12/12 07:52:21;;;;;;;47.15;31.48;;;;;;;;;;4984095;28;20034;-77
2022/12/12 07:54:47;;;;;;;43.03;32.95;;;;;;;;;;4992960;28;20042;-78
2022/12/12 07:57:13;;;;;;;47.75;30.73;;;;;;;;;;4989339;28;20025;-77
2022/12/12 07:59:41;;;;;;;34.70;29.48;;;;;;;;;;4990560;28;20030;-78
2022/12/12 08:02:12;;;;;;;45.10;33.30;;;;;;;;;;4988732;28;20026;-78
2022/12/12 08:04:38;;;;;;;41.65;32.75;;;;;;;;;;4988236;28;20595;-77
2022/12/12 08:07:04;;;;;;;49.78;34.40;;;;;;;;;;4991425;28;20037;-78
2022/12/12 08:09:32;;;;;;;44.90;33.47;;;;;;;;;;4986027;28;20397;-78
2022/12/12 08:11:58;;;;;;;39.88;31.30;;;;;;;;;;4985163;28;20039;-77
2022/12/12 08:14:27;;;;;;;42.80;33.97;;;;;;;;;;4986015;28;20563;-78
2022/12/12 08:16:58;;;;;;;44.17;31.00;;;;;;;;;;4987913;28;20313;-78
2022/12/12 08:19:26;;;;;;;40.58;29.88;;;;;;;;;;4999116;28;20030;-79
2022/12/12 08:21:54;;;;;;;37.63;28.48;;;;;;;;;;4993461;28;20038;-79
2022/12/12 08:24:20;;;;;;;43.50;31.73;;;;;;;;;;5004153;28;20049;-78
2022/12/12 08:26:50;;;;;;;44.38;31.42;;;;;;;;;;4995279;28;20033;-78
2022/12/12 08:29:21;;;;;;;40.45;28.25;;;;;;;;;;4997285;28;20029;-78
2022/12/12 08:31:47;;;;;;;44.22;31.35;;;;;;;;;;4968045;28;20030;-78
2022/12/12 08:34:12;;;;;;;38.63;27.92;;;;;;;;;;4969880;28;20419;-78
2022/12/12 08:36:38;;;;;;;41.45;30.20;;;;;;;;;;4988301;28;20040;-78
2022/12/12 08:39:08;;;;;;;52.53;30.23;;;;;;;;;;4998256;28;20034;-78
2022/12/12 08:41:34;;;;;;;42.33;28.02;;;;;;;;;;4974408;28;20029;-79
2022/12/12 08:44:03;;;;;;;50.42;28.73;;;;;;;;;;4990541;28;20035;-79
2022/12/12 08:46:29;;;;;;;35.67;27.20;;;;;;;;;;4978351;28;20033;-78
2022/12/12 08:48:55;;;;;;;48.20;30.02;;;;;;;;;;4992835;28;20504;-78
2022/12/12 08:51:21;;;;;;;37.50;28.13;;;;;;;;;;4990485;28;20051;-78
2022/12/12 08:53:50;;;;;;;37.40;27.13;;;;;;;;;;4986090;28;20038;-78
2022/12/12 08:56:19;;;;;;;39.35;29.30;;;;;;;;;;4987099;28;20037;-79
2022/12/12 08:58:45;;;;;;;39.33;26.42;;;;;;;;;;5004479;28;20030;-79
2022/12/12 09:01:16;;;;;;;39.22;27.58;;;;;;;;;;4986327;28;20061;-78
2022/12/12 09:03:44;;;;;;;43.38;28.05;;;;;;;;;;4990847;28;20033;-78
2022/12/12 09:06:13;;;;;;;35.28;26.13;;;;;;;;;;4990864;28;20030;-78
2022/12/12 09:08:39;;;;;;;36.35;27.10;;;;;;;;;;4975082;28;20042;-79
2022/12/12 09:11:05;;;;;;;49.15;27.42;;;;;;;;;;4995667;28;20037;-79
2022/12/12 09:13:31;;;;;;;30.85;23.45;;;;;;;;;;4992523;28;20084;-79
2022/12/12 09:16:00;;;;;;;39.05;27.10;;;;;;;;;;4990512;28;20030;-79
2022/12/12 09:18:30;;;;;;;40.47;27.15;;;;;;;;;;4991185;28;20027;-79
2022/12/12 09:21:00;;;;;;;34.53;26.35;;;;;;;;;;4994070;28;20026;-79
2022/12/12 09:23:29;;;;;;;33.35;25.40;;;;;;;;;;4977014;28;20657;-80
2022/12/12 09:26:23;;;;;;;38.28;28.85;;;;;;;;;;4994694;28;20026;-78
2022/12/12 09:28:51;;;;;;;32.28;23.90;;;;;;;;;;4990525;28;20479;-79
2022/12/12 09:31:18;;;;;;;34.72;26.95;;;;;;;;;;4986373;28;20493;-79
2022/12/12 09:33:49;;;;;;;32.03;25.67;;;;;;;;;;4987172;28;20527;-80
2022/12/12 09:36:17;;;;;;;34.58;26.10;;;;;;;;;;4988933;28;20050;-74
2022/12/12 09:38:44;;;;;;;39.70;26.38;;;;;;;;;;4993615;28;20026;-77
2022/12/12 09:41:17;;;;;;;39.25;24.58;;;;;;;;;;4991980;28;20090;-79
2022/12/12 09:43:58;;;;;;;31.95;24.73;;;;;;;;;;5002636;28;20037;-79
2022/12/12 09:46:30;;;;;;;34.08;25.55;;;;;;;;;;4990337;28;20034;-78
2022/12/12 09:49:17;;;;;;;35.60;23.10;;;;;;;;;;4989963;28;20282;-78
2022/12/12 09:51:45;;;;;;;34.33;24.02;;;;;;;;;;4978169;28;20496;-78
2022/12/12 09:54:12;;;;;;;35.40;22.40;;;;;;;;;;5006140;28;20042;-78
2022/12/12 09:56:44;;;;;;;35.17;24.20;;;;;;;;;;4987836;28;20038;-79
2022/12/12 09:59:15;;;;;;;33.17;24.73;;;;;;;;;;4995398;28;20034;-79
2022/12/12 10:01:59;;;;;;;37.70;25.65;;;;;;;;;;4990864;28;20031;-79
2022/12/12 10:04:52;;;;;;;30.60;25.90;;;;;;;;;;4989065;28;20440;-78
2022/12/12 10:07:28;;;;;;;31.20;24.40;;;;;;;;;;4992340;28;20038;-79
2022/12/12 10:09:59;;;;;;;25.52;22.67;;;;;;;;;;4968706;28;20030;-79
2022/12/12 10:12:25;;;;;;;30.85;22.77;;;;;;;;;;4985263;28;20412;-78
2022/12/12 10:15:01;;;;;;;35.40;24.75;;;;;;;;;;4986987;28;20034;-79
2022/12/12 10:17:36;;;;;;;35.10;25.23;;;;;;;;;;5009704;28;20053;-78
2022/12/12 10:20:24;;;;;;;30.33;23.80;;;;;;;;;;4987214;28;20480;-78
2022/12/12 10:23:03;;;;;;;33.05;22.65;;;;;;;;;;4989803;28;20049;-78
2022/12/12 10:25:47;;;;;;;27.67;21.45;;;;;;;;;;4987532;28;20030;-78
2022/12/12 10:28:14;;;;;;;36.13;21.70;;;;;;;;;;4990332;28;20035;-78
2022/12/12 10:31:04;;;;;;;28.92;23.20;;;;;;;;;;4986968;28;20042;-79
2022/12/12 10:33:38;;;;;;;36.05;24.25;;;;;;;;;;4979068;28;20034;-79
2022/12/12 10:36:07;;;;;;;36.95;25.38;;;;;;;;;;4982245;28;20030;-80
2022/12/12 10:38:45;;;;;;;40.38;27.35;;;;;;;;;;4988319;28;20037;-78
2022/12/12 10:41:17;;;;;;;31.38;21.88;;;;;;;;;;4985480;28;20022;-79
2022/12/12 10:44:01;;;;;;;39.40;26.40;;;;;;;;;;4988017;28;20034;-79
2022/12/12 10:46:30;;;;;;;31.67;23.27;;;;;;;;;;4987717;28;20022;-78
2022/12/12 10:48:58;;;;;;;28.73;21.20;;;;;;;;;;4986838;28;20031;-79
2022/12/12 10:51:26;;;;;;;33.28;20.80;;;;;;;;;;4984851;28;20037;-78
2022/12/12 10:53:57;;;;;;;29.33;22.75;;;;;;;;;;4991213;28;20029;-78
2022/12/12 10:56:28;;;;;;;34.85;22.00;;;;;;;;;;5000962;28;20031;-79
2022/12/12 10:58:56;;;;;;;32.20;21.85;;;;;;;;;;4986020;28;20049;-78
2022/12/12 11:01:33;;;;;;;28.30;22.08;;;;;;;;;;4994873;28;20037;-79
2022/12/12 11:04:03;;;;;;;28.48;21.05;;;;;;;;;;4991017;28;20042;-78
2022/12/12 11:06:30;;;;;;;33.10;24.83;;;;;;;;;;4999785;28;20357;-78
2022/12/12 11:09:08;;;;;;;23.70;19.73;;;;;;;;;;4977267;28;20038;-79
2022/12/12 11:11:36;;;;;;;37.17;25.63;;;;;;;;;;4967073;28;20497;-79
2022/12/12 11:14:19;;;;;;;28.75;21.30;;;;;;;;;;4984909;28;20393;-79
2022/12/12 11:16:50;;;;;;;31.25;22.58;;;;;;;;;;4990145;28;20118;-79
2022/12/12 11:19:24;;;;;;;26.13;21.63;;;;;;;;;;4994066;28;20396;-79
2022/12/12 11:21:53;;;;;;;30.08;23.17;;;;;;;;;;4968186;28;20038;-78
2022/12/12 11:24:28;;;;;;;28.77;21.15;;;;;;;;;;4988031;28;20037;-79
2022/12/12 11:26:58;;;;;;;31.17;21.95;;;;;;;;;;4986793;28;20515;-79
2022/12/12 11:29:24;;;;;;;32.05;21.05;;;;;;;;;;5005368;28;20031;-79
2022/12/12 11:31:50;;;;;;;19.65;17.00;;;;;;;;;;5001467;28;20339;-79
2022/12/12 11:34:20;;;;;;;28.88;20.10;;;;;;;;;;4973483;28;20405;-79
2022/12/12 11:36:48;;;;;;;26.92;21.00;;;;;;;;;;4990522;28;20025;-78
2022/12/12 11:39:15;;;;;;;28.02;19.10;;;;;;;;;;4990840;28;20026;-78
2022/12/12 11:41:55;;;;;;;26.08;18.92;;;;;;;;;;4988113;28;20042;-78
2022/12/12 11:44:26;;;;;;;27.02;18.98;;;;;;;;;;5007907;28;20031;-78
2022/12/12 11:46:54;;;;;;;28.73;22.40;;;;;;;;;;4986325;28;20046;-79
2022/12/12 11:49:22;;;;;;;26.13;18.83;;;;;;;;;;5007609;28;20053;-79
2022/12/12 11:51:48;;;;;;;28.70;21.05;;;;;;;;;;4973444;28;20034;-79
2022/12/12 11:54:19;;;;;;;27.75;20.13;;;;;;;;;;4993276;28;20041;-79
2022/12/12 11:57:02;;;;;;;24.38;19.23;;;;;;;;;;5001476;28;20041;-80
2022/12/12 11:59:40;;;;;;;21.52;18.17;;;;;;;;;;4992999;28;20026;-78
2022/12/12 12:02:06;;;;;;;26.83;15.93;;;;;;;;;;4987075;28;20387;-77
2022/12/12 12:04:46;;;;;;;25.60;15.57;;;;;;;;;;4995162;28;20033;-78
2022/12/12 12:07:30;;;;;;;23.42;17.75;;;;;;;;;;4990757;28;20403;-79
2022/12/12 12:10:25;;;;;;;24.58;15.77;;;;;;;;;;4984954;28;20035;-78
2022/12/12 12:12:53;;;;;;;27.67;17.75;;;;;;;;;;4985204;28;20046;-78
2022/12/12 12:15:19;;;;;;;27.63;17.33;;;;;;;;;;4995260;28;20034;-78
2022/12/12 12:18:04;;;;;;;30.55;19.08;;;;;;;;;;4991205;28;20107;-78
2022/12/12 12:20:36;;;;;;;22.30;14.60;;;;;;;;;;5003143;28;20365;-77
2022/12/12 12:23:02;;;;;;;22.33;15.23;;;;;;;;;;4991136;28;20281;-78
2022/12/12 12:25:33;;;;;;;19.77;12.55;;;;;;;;;;4993622;28;20041;-78
2022/12/12 12:28:19;;;;;;;23.08;13.93;;;;;;;;;;4994721;28;20403;-79
2022/12/12 12:30:50;;;;;;;20.17;13.20;;;;;;;;;;4982446;28;20485;-79
2022/12/12 12:33:28;;;;;;;21.70;13.75;;;;;;;;;;4992050;28;20042;-78
2022/12/12 12:36:10;;;;;;;18.52;12.40;;;;;;;;;;4985223;28;20049;-79
2022/12/12 12:38:41;;;;;;;16.27;14.07;;;;;;;;;;4974645;28;20026;-78
2022/12/12 12:41:07;;;;;;;20.40;14.40;;;;;;;;;;4989796;28;20037;-79
2022/12/12 12:43:38;;;;;;;16.52;13.13;;;;;;;;;;5004968;28;20057;-78
2022/12/12 12:46:27;;;;;;;25.02;14.38;;;;;;;;;;4989944;28;20049;-78
2022/12/12 12:49:02;;;;;;;19.25;13.10;;;;;;;;;;4976244;28;20041;-79
2022/12/12 12:51:30;;;;;;;22.20;15.30;;;;;;;;;;4988073;28;20476;-79
2022/12/12 12:53:56;;;;;;;21.55;12.95;;;;;;;;;;4993449;28;20391;-79
2022/12/12 12:56:32;;;;;;;19.85;15.82;;;;;;;;;;5000328;28;20030;-79
2022/12/12 12:59:03;;;;;;;21.45;16.00;;;;;;;;;;4997167;28;20034;-78
2022/12/12 13:01:34;;;;;;;21.30;17.65;;;;;;;;;;4992450;28;20039;-78
2022/12/12 13:04:01;;;;;;;21.17;14.95;;;;;;;;;;4997322;28;20492;-78
2022/12/12 13:06:39;;;;;;;19.25;15.98;;;;;;;;;;4994283;28;20023;-78
2022/12/12 13:09:12;;;;;;;20.10;14.50;;;;;;;;;;4989625;28;20034;-78
2022/12/12 13:11:43;;;;;;;24.60;17.02;;;;;;;;;;5007418;23;20054;-71
2022/12/12 13:14:17;;;;;;;21.70;14.30;;;;;;;;;;5007209;28;20038;-73
2022/12/12 13:16:46;;;;;;;21.33;16.48;;;;;;;;;;5009796;28;20484;-72
2022/12/12 13:19:22;;;;;;;22.30;17.15;;;;;;;;;;4995603;28;20336;-72
2022/12/12 13:22:02;;;;;;;26.65;16.23;;;;;;;;;;5006223;28;20377;-72
2022/12/12 13:24:35;;;;;;;26.05;17.40;;;;;;;;;;5010368;28;20033;-72
2022/12/12 13:27:17;;;;;;;18.77;15.57;;;;;;;;;;5006995;28;20029;-73
2022/12/12 13:29:47;;;;;;;48.55;17.23;;;;;;;;;;4989069;28;20038;-72
2022/12/12 13:32:26;;;;;;;21.17;14.38;;;;;;;;;;5007597;28;20033;-73
2022/12/12 13:35:01;;;;;;;19.42;14.60;;;;;;;;;;5004330;28;20503;-73
2022/12/12 13:37:29;;;;;;;23.85;16.33;;;;;;;;;;5010180;28;20476;-73
2022/12/12 13:39:59;;;;;;;21.58;17.20;;;;;;;;;;5008713;28;20034;-72
2022/12/12 13:42:27;;;;;;;23.05;15.23;;;;;;;;;;5003931;28;20024;-72
2022/12/12 13:44:53;;;;;;;21.02;15.35;;;;;;;;;;5008494;28;20034;-72
2022/12/12 13:47:22;;;;;;;20.23;14.70;;;;;;;;;;4994678;28;20026;-72
2022/12/12 13:49:57;;;;;;;21.98;16.17;;;;;;;;;;5010876;28;20510;-72
2022/12/12 13:52:25;;;;;;;31.88;22.85;;;;;;;;;;5002056;28;20034;-72
2022/12/12 13:54:53;;;;;;;27.73;18.63;;;;;;;;;;5006295;28;20049;-72
2022/12/12 13:57:24;;;;;;;21.10;17.83;;;;;;;;;;5001829;28;20029;-72
2022/12/12 13:59:55;;;;;;;18.45;16.42;;;;;;;;;;5003277;28;20018;-71
2022/12/12 14:02:27;;;;;;;26.92;17.35;;;;;;;;;;5001393;28;20031;-72
2022/12/12 14:05:10;;;;;;;18.80;14.23;;;;;;;;;;5009673;28;20389;-72
2022/12/12 14:07:38;;;;;;;27.50;18.42;;;;;;;;;;4993163;28;20042;-72
2022/12/12 14:10:33;;;;;;;27.48;18.35;;;;;;;;;;5022902;28;20026;-72
2022/12/12 14:13:17;;;;;;;25.33;18.65;;;;;;;;;;5005112;28;20056;-72
2022/12/12 14:15:47;;;;;;;28.15;18.02;;;;;;;;;;5005934;28;20038;-72
2022/12/12 14:18:23;;;;;;;24.92;18.48;;;;;;;;;;5010631;28;20029;-72
2022/12/12 14:20:55;;;;;;;27.10;18.90;;;;;;;;;;5008389;28;20504;-72
2022/12/12 14:23:23;;;;;;;21.15;16.58;;;;;;;;;;5016484;28;20029;-72
2022/12/12 14:25:51;;;;;;;23.90;18.00;;;;;;;;;;5008732;28;20034;-72
2022/12/12 14:28:22;;;;;;;21.40;18.33;;;;;;;;;;5008218;28;20038;-72
2022/12/12 14:30:51;;;;;;;29.88;19.80;;;;;;;;;;5001492;28;20034;-72
2022/12/12 14:33:19;;;;;;;27.38;18.23;;;;;;;;;;5003328;28;20034;-72
2022/12/12 14:35:59;;;;;;;30.58;20.73;;;;;;;;;;5008136;28;20037;-72
2022/12/12 14:38:35;;;;;;;22.40;19.63;;;;;;;;;;5010266;28;20049;-73
2022/12/12 14:41:02;;;;;;;18.67;14.93;;;;;;;;;;5001351;28;20461;-73
2022/12/12 14:43:29;;;;;;;26.45;18.25;;;;;;;;;;5001120;28;20444;-73
2022/12/12 14:45:56;;;;;;;26.35;20.10;;;;;;;;;;5003833;28;20041;-73
2022/12/12 14:48:32;;;;;;;28.92;20.42;;;;;;;;;;5005524;28;20037;-73
2022/12/12 14:51:00;;;;;;;27.98;23.00;;;;;;;;;;5005764;28;20030;-73
2022/12/12 14:53:28;;;;;;;29.40;23.17;;;;;;;;;;4990322;28;20095;-73